Mount Airy, NC

8:57 AM EDT on September 22, 2019 (GMT -0400)
Mount Airy-Surry County

Weather History for KMWK - May, 2019

Change the Weather History Date:

Wednesday, May 22, 2019

  Actual Average (KINT) Record (KINT)
Temperature  
Mean Temperature 68 °F -  
Max Temperature 72 °F 76 °F 91 °F (1975)
Min Temperature 63 °F 56 °F 38 °F (1993)
Cooling Degree Days 2    
Growing Degree Days 18 (Base 50)    
Moisture  
Dew Point 59 °F    
Average Humidity 73    
Maximum Humidity 82    
Minimum Humidity 64    
Precipitation  
Precipitation 0.00 in - - ()
Sea Level Pressure  
Sea Level Pressure 30.24 in    
Wind  
Wind Speed 7 mph ()    
Max Wind Speed 16 mph    
Max Gust Speed 26 mph    
Visibility 10.0 miles    
Events      
Averages and records for this station are not official NWS values.
T = Trace of Precipitation, MM = Missing Value Source: Averaged Metar Reports

Daily Weather History Graph

Daily Weather History Graph

Search for Another Location

Airport or City:

Astronomy

May. 22, 2019 Rise Set
Actual Time 6:10 AM EDT 8:27 PM EDT
Civil Twilight 5:41 AM EDT 8:56 PM EDT
Nautical Twilight 5:05 AM EDT 9:32 PM EDT
Astronomical Twilight 4:26 AM EDT 10:12 PM EDT
Moon No Moon Rise 9:18 AM EDT
Length of Visible Light 15h 15m
Length of Day
14h 17m
Waning Gibbous, 85% of the Moon is Illuminated
May 22
Waning Gibbous
May 26
Last Quarter
Jun 3
New
Jun 10
First Quarter
Jun 17
Full

Hourly Weather History & Observations

Time (EDT) Temp. Dew Point Humidity Pressure Visibility Wind Dir Wind Speed Gust Speed Precip Events Conditions
12:00 AM 71.2 °F 58.6 °F 64% 30.12 in 10.0 mi East 13.8 mph 20.7 mph N/A   Clear
12:20 AM 70.7 °F 59.0 °F 66% 30.12 in 10.0 mi East 13.8 mph 23.0 mph N/A   Clear
12:40 AM 69.8 °F 59.0 °F 68% 30.13 in 10.0 mi ENE 13.8 mph 20.7 mph N/A   Clear
1:00 AM 68.9 °F 59.5 °F 72% 30.14 in 10.0 mi ENE 16.1 mph 24.2 mph N/A   Clear
1:20 AM 68.5 °F 59.9 °F 74% 30.14 in 10.0 mi ENE 15.0 mph 26.5 mph N/A   Clear
1:40 AM 68.0 °F 60.1 °F 76% 30.14 in 10.0 mi ENE 13.8 mph 26.5 mph N/A   Clear
2:00 AM 67.3 °F 59.9 °F 77% 30.15 in 10.0 mi ENE 15.0 mph 23.0 mph N/A   Clear
2:20 AM 66.6 °F 59.7 °F 79% 30.15 in 10.0 mi ENE 11.5 mph 21.9 mph N/A   Clear
2:40 AM 66.2 °F 59.2 °F 78% 30.16 in 10.0 mi NE 5.8 mph 19.6 mph N/A   Clear
3:00 AM 65.7 °F 58.6 °F 78% 30.17 in 10.0 mi East 8.1 mph - N/A   Clear
3:20 AM 65.5 °F 58.5 °F 78% 30.18 in 10.0 mi NE 4.6 mph - N/A   Clear
3:40 AM 64.9 °F 58.1 °F 78% 30.18 in 10.0 mi NE 5.8 mph - N/A   Clear
4:00 AM 64.4 °F 57.6 °F 78% 30.18 in 10.0 mi ENE 9.2 mph - N/A   Clear
4:20 AM 64.0 °F 57.0 °F 78% 30.19 in 10.0 mi ENE 5.8 mph - N/A   Clear
4:40 AM 63.9 °F 56.1 °F 76% 30.19 in 10.0 mi NE 5.8 mph - N/A   Mostly Cloudy
5:00 AM 64.2 °F 55.8 °F 74% 30.19 in 10.0 mi NE 4.6 mph - N/A   Overcast
5:20 AM 64.6 °F 55.6 °F 73% 30.20 in 10.0 mi ENE 8.1 mph - N/A   Overcast
5:40 AM 64.8 °F 55.4 °F 72% 30.21 in 10.0 mi NE 4.6 mph - N/A   Overcast
6:00 AM 64.8 °F 54.9 °F 70% 30.22 in 10.0 mi ENE 6.9 mph - N/A   Overcast
6:20 AM 64.6 °F 54.7 °F 70% 30.22 in 10.0 mi ENE 5.8 mph - N/A   Overcast
6:40 AM 64.4 °F 54.1 °F 69% 30.24 in 10.0 mi NE 4.6 mph - N/A   Overcast
7:00 AM 64.2 °F 53.8 °F 69% 30.24 in 10.0 mi ENE 6.9 mph - N/A   Overcast
7:20 AM 64.0 °F 54.5 °F 71% 30.25 in 10.0 mi NE 5.8 mph - N/A   Overcast
7:40 AM 64.0 °F 54.7 °F 72% 30.25 in 10.0 mi ENE 5.8 mph - N/A   Overcast
8:00 AM 63.9 °F 54.9 °F 72% 30.26 in 10.0 mi East 3.5 mph - N/A   Overcast
8:20 AM 64.0 °F 55.0 °F 73% 30.25 in 10.0 mi ENE 4.6 mph - N/A   Overcast
8:40 AM 64.4 °F 55.9 °F 74% 30.25 in 10.0 mi ENE 5.8 mph - N/A   Overcast
9:20 AM 64.8 °F 56.1 °F 74% 30.26 in 10.0 mi ENE 6.9 mph - N/A   Overcast
9:40 AM 64.8 °F 56.3 °F 74% 30.26 in 10.0 mi East 5.8 mph - N/A   Mostly Cloudy
10:00 AM 64.9 °F 56.3 °F 74% 30.27 in 10.0 mi East 4.6 mph - N/A   Mostly Cloudy
10:20 AM 65.3 °F 56.5 °F 73% 30.27 in 10.0 mi East 5.8 mph - N/A   Mostly Cloudy
10:40 AM 65.7 °F 56.7 °F 73% 30.27 in 10.0 mi East 5.8 mph - N/A   Mostly Cloudy
11:00 AM 66.0 °F 57.0 °F 73% 30.27 in 10.0 mi East 6.9 mph - N/A   Mostly Cloudy
11:20 AM 66.4 °F 57.6 °F 73% 30.28 in 10.0 mi NE 4.6 mph - N/A   Mostly Cloudy
11:40 AM 68.0 °F 58.3 °F 71% 30.28 in 10.0 mi NE 5.8 mph - N/A   Mostly Cloudy
12:00 PM 68.4 °F 58.5 °F 71% 30.28 in 10.0 mi East 3.5 mph - N/A   Mostly Cloudy
12:20 PM 68.7 °F 58.6 °F 70% 30.28 in 10.0 mi ENE 4.6 mph - N/A   Mostly Cloudy
1:20 PM 69.8 °F 58.8 °F 68% 30.29 in 10.0 mi ENE 6.9 mph - N/A   Mostly Cloudy
1:40 PM 70.2 °F 58.5 °F 66% 30.29 in 10.0 mi ENE 5.8 mph - N/A   Overcast
2:00 PM 71.2 °F 59.0 °F 65% 30.29 in 10.0 mi NE 3.5 mph - N/A   Overcast
2:20 PM 70.7 °F 58.8 °F 66% 30.29 in 10.0 mi East 4.6 mph - N/A   Overcast
2:40 PM 70.5 °F 59.4 °F 68% 30.29 in 10.0 mi Calm Calm - N/A   Overcast
3:00 PM 70.7 °F 59.7 °F 68% 30.28 in 10.0 mi East 4.6 mph - N/A   Overcast
3:20 PM 71.1 °F 60.3 °F 69% 30.27 in 10.0 mi East 3.5 mph - N/A   Overcast
3:40 PM 71.1 °F 59.9 °F 68% 30.27 in 10.0 mi East 4.6 mph - N/A   Overcast
4:00 PM 72.0 °F 60.4 °F 67% 30.27 in 10.0 mi ESE 4.6 mph - N/A   Overcast
4:20 PM 72.7 °F 61.0 °F 67% 30.26 in 10.0 mi ESE 5.8 mph - N/A   Overcast
4:40 PM 72.5 °F 60.8 °F 67% 30.26 in 10.0 mi East 4.6 mph - N/A   Overcast
5:00 PM 72.5 °F 61.2 °F 67% 30.26 in 10.0 mi ESE 4.6 mph - N/A   Overcast
5:20 PM 72.7 °F 61.5 °F 68% 30.25 in 10.0 mi ESE 5.8 mph - N/A   Overcast
5:40 PM 72.5 °F 62.2 °F 70% 30.25 in 10.0 mi ESE 5.8 mph - N/A   Overcast
6:00 PM 72.5 °F 62.6 °F 71% 30.25 in 10.0 mi SE 4.6 mph - N/A   Overcast
6:20 PM 72.5 °F 62.6 °F 71% 30.25 in 10.0 mi ESE 3.5 mph - N/A   Overcast
6:40 PM 72.5 °F 63.1 °F 72% 30.25 in 10.0 mi Calm Calm - N/A   Overcast
7:00 PM 72.5 °F 63.0 °F 72% 30.24 in 10.0 mi Calm Calm - N/A   Overcast
7:20 PM 72.1 °F 63.5 °F 74% 30.25 in 10.0 mi Calm Calm - N/A   Overcast
7:40 PM 71.4 °F 63.0 °F 75% 30.25 in 10.0 mi NE 3.5 mph - N/A   Mostly Cloudy
8:00 PM 71.1 °F 62.8 °F 75% 30.26 in 10.0 mi NNE 3.5 mph - N/A   Overcast
8:20 PM 70.7 °F 62.8 °F 76% 30.26 in 10.0 mi Calm Calm - N/A   Overcast
8:40 PM 70.2 °F 62.6 °F 77% 30.27 in 10.0 mi Calm Calm - N/A   Overcast
9:00 PM 70.7 °F 63.3 °F 77% 30.27 in 10.0 mi Calm Calm - N/A   Overcast
9:20 PM 70.5 °F 62.8 °F 76% 30.28 in 10.0 mi Calm Calm - N/A   Mostly Cloudy
9:40 PM 69.8 °F 63.0 °F 79% 30.28 in 10.0 mi Calm Calm - N/A   Mostly Cloudy
10:00 PM 69.3 °F 62.8 °F 80% 30.29 in 10.0 mi Calm Calm - N/A   Overcast
10:20 PM 69.4 °F 62.8 °F 79% 30.29 in 10.0 mi Calm Calm - N/A   Overcast
10:40 PM 69.4 °F 63.0 °F 80% 30.30 in 10.0 mi Calm Calm - N/A   Overcast
11:00 PM 69.1 °F 63.5 °F 82% 30.30 in 10.0 mi Calm Calm - N/A   Overcast
11:20 PM 69.6 °F 63.5 °F 81% 30.30 in 10.0 mi Calm Calm - N/A   Overcast
11:40 PM 69.4 °F 63.7 °F 82% 30.30 in 10.0 mi Calm Calm - N/A   Overcast